sensor_id;sensor_type;location;lat;lon;timestamp;P1;durP1;ratioP1;P2;durP2;ratioP2
5704;SDS011;2877;48.238;11.160;2023-07-02T00:00:57;3.00;;;2.80;;
5704;SDS011;2877;48.238;11.160;2023-07-02T00:03:24;3.67;;;3.37;;
5704;SDS011;2877;48.238;11.160;2023-07-02T00:05:50;4.87;;;2.73;;
5704;SDS011;2877;48.238;11.160;2023-07-02T00:08:19;5.80;;;3.13;;
5704;SDS011;2877;48.238;11.160;2023-07-02T00:10:45;3.20;;;2.90;;
5704;SDS011;2877;48.238;11.160;2023-07-02T00:13:10;3.60;;;3.00;;
5704;SDS011;2877;48.238;11.160;2023-07-02T00:15:36;4.70;;;3.57;;
5704;SDS011;2877;48.238;11.160;2023-07-02T00:18:01;4.23;;;2.90;;
5704;SDS011;2877;48.238;11.160;2023-07-02T00:20:27;3.13;;;2.70;;
5704;SDS011;2877;48.238;11.160;2023-07-02T00:22:52;3.80;;;3.37;;
5704;SDS011;2877;48.238;11.160;2023-07-02T00:25:19;3.47;;;2.73;;
5704;SDS011;2877;48.238;11.160;2023-07-02T00:27:45;2.87;;;2.67;;
5704;SDS011;2877;48.238;11.160;2023-07-02T00:30:11;3.93;;;2.50;;
5704;SDS011;2877;48.238;11.160;2023-07-02T00:32:36;2.50;;;2.40;;
5704;SDS011;2877;48.238;11.160;2023-07-02T00:35:02;2.50;;;2.30;;
5704;SDS011;2877;48.238;11.160;2023-07-02T00:37:28;2.80;;;2.50;;
5704;SDS011;2877;48.238;11.160;2023-07-02T00:39:53;2.00;;;1.90;;
5704;SDS011;2877;48.238;11.160;2023-07-02T00:42:19;2.63;;;2.43;;
5704;SDS011;2877;48.238;11.160;2023-07-02T00:44:45;5.23;;;2.10;;
5704;SDS011;2877;48.238;11.160;2023-07-02T00:47:11;2.30;;;2.10;;
5704;SDS011;2877;48.238;11.160;2023-07-02T00:49:37;2.80;;;2.53;;
5704;SDS011;2877;48.238;11.160;2023-07-02T00:52:05;2.33;;;2.13;;
5704;SDS011;2877;48.238;11.160;2023-07-02T00:54:31;3.33;;;1.90;;
5704;SDS011;2877;48.238;11.160;2023-07-02T00:56:56;2.00;;;1.90;;
5704;SDS011;2877;48.238;11.160;2023-07-02T00:59:27;2.60;;;2.40;;
5704;SDS011;2877;48.238;11.160;2023-07-02T01:01:54;2.20;;;2.10;;
5704;SDS011;2877;48.238;11.160;2023-07-02T01:04:22;2.50;;;2.30;;
5704;SDS011;2877;48.238;11.160;2023-07-02T01:06:52;2.80;;;1.90;;
5704;SDS011;2877;48.238;11.160;2023-07-02T01:09:23;2.90;;;2.10;;
5704;SDS011;2877;48.238;11.160;2023-07-02T01:11:53;2.30;;;2.20;;
5704;SDS011;2877;48.238;11.160;2023-07-02T01:16:51;2.20;;;2.00;;
5704;SDS011;2877;48.238;11.160;2023-07-02T01:22:09;2.20;;;1.87;;
5704;SDS011;2877;48.238;11.160;2023-07-02T01:24:36;2.90;;;2.17;;
5704;SDS011;2877;48.238;11.160;2023-07-02T01:27:03;2.20;;;2.10;;
5704;SDS011;2877;48.238;11.160;2023-07-02T01:29:30;3.83;;;2.40;;
5704;SDS011;2877;48.238;11.160;2023-07-02T01:31:56;1.93;;;1.83;;
5704;SDS011;2877;48.238;11.160;2023-07-02T01:34:22;3.63;;;2.30;;
5704;SDS011;2877;48.238;11.160;2023-07-02T01:36:47;1.70;;;1.60;;
5704;SDS011;2877;48.238;11.160;2023-07-02T01:39:13;2.30;;;2.20;;
5704;SDS011;2877;48.238;11.160;2023-07-02T01:42:12;2.00;;;1.90;;
5704;SDS011;2877;48.238;11.160;2023-07-02T01:44:32;2.10;;;2.00;;
5704;SDS011;2877;48.238;11.160;2023-07-02T01:46:58;2.40;;;2.07;;
5704;SDS011;2877;48.238;11.160;2023-07-02T01:49:24;2.40;;;2.10;;
5704;SDS011;2877;48.238;11.160;2023-07-02T01:51:52;2.63;;;2.43;;
5704;SDS011;2877;48.238;11.160;2023-07-02T01:54:20;2.20;;;2.10;;
5704;SDS011;2877;48.238;11.160;2023-07-02T01:56:46;3.47;;;2.50;;
5704;SDS011;2877;48.238;11.160;2023-07-02T01:59:12;3.20;;;2.50;;
5704;SDS011;2877;48.238;11.160;2023-07-02T02:01:38;6.23;;;2.27;;
5704;SDS011;2877;48.238;11.160;2023-07-02T02:04:05;2.77;;;2.20;;
5704;SDS011;2877;48.238;11.160;2023-07-02T02:06:31;1.90;;;1.80;;
5704;SDS011;2877;48.238;11.160;2023-07-02T02:08:57;2.70;;;2.50;;
5704;SDS011;2877;48.238;11.160;2023-07-02T02:11:22;2.03;;;1.83;;
5704;SDS011;2877;48.238;11.160;2023-07-02T02:13:48;2.60;;;2.40;;
5704;SDS011;2877;48.238;11.160;2023-07-02T02:16:14;2.37;;;2.27;;
5704;SDS011;2877;48.238;11.160;2023-07-02T02:18:40;2.60;;;2.40;;
5704;SDS011;2877;48.238;11.160;2023-07-02T02:21:06;2.70;;;2.43;;
5704;SDS011;2877;48.238;11.160;2023-07-02T02:23:31;2.67;;;2.47;;
5704;SDS011;2877;48.238;11.160;2023-07-02T02:25:57;4.50;;;2.20;;
5704;SDS011;2877;48.238;11.160;2023-07-02T02:28:22;2.67;;;2.47;;
5704;SDS011;2877;48.238;11.160;2023-07-02T02:30:48;2.10;;;2.00;;
5704;SDS011;2877;48.238;11.160;2023-07-02T02:33:14;2.90;;;2.70;;
5704;SDS011;2877;48.238;11.160;2023-07-02T02:35:39;2.80;;;2.60;;
5704;SDS011;2877;48.238;11.160;2023-07-02T02:38:05;2.53;;;2.33;;
5704;SDS011;2877;48.238;11.160;2023-07-02T02:40:30;2.60;;;2.40;;
5704;SDS011;2877;48.238;11.160;2023-07-02T02:42:56;2.90;;;2.17;;
5704;SDS011;2877;48.238;11.160;2023-07-02T02:45:21;7.13;;;2.40;;
5704;SDS011;2877;48.238;11.160;2023-07-02T02:47:47;2.87;;;2.67;;
5704;SDS011;2877;48.238;11.160;2023-07-02T02:50:13;4.10;;;2.77;;
5704;SDS011;2877;48.238;11.160;2023-07-02T02:52:39;3.23;;;2.70;;
5704;SDS011;2877;48.238;11.160;2023-07-02T02:55:05;4.40;;;3.77;;
5704;SDS011;2877;48.238;11.160;2023-07-02T02:57:32;4.13;;;3.73;;
5704;SDS011;2877;48.238;11.160;2023-07-02T02:59:58;5.33;;;3.60;;
5704;SDS011;2877;48.238;11.160;2023-07-02T03:02:24;5.27;;;3.37;;
5704;SDS011;2877;48.238;11.160;2023-07-02T03:04:49;4.17;;;3.50;;
5704;SDS011;2877;48.238;11.160;2023-07-02T03:07:15;5.97;;;4.07;;
5704;SDS011;2877;48.238;11.160;2023-07-02T03:09:41;4.20;;;3.90;;
5704;SDS011;2877;48.238;11.160;2023-07-02T03:12:07;5.57;;;3.90;;
5704;SDS011;2877;48.238;11.160;2023-07-02T03:14:32;8.70;;;4.50;;
5704;SDS011;2877;48.238;11.160;2023-07-02T03:16:58;6.57;;;4.67;;
5704;SDS011;2877;48.238;11.160;2023-07-02T03:19:24;10.83;;;4.43;;
5704;SDS011;2877;48.238;11.160;2023-07-02T03:21:50;5.37;;;4.00;;
5704;SDS011;2877;48.238;11.160;2023-07-02T03:24:15;8.00;;;4.70;;
5704;SDS011;2877;48.238;11.160;2023-07-02T03:26:41;7.70;;;4.73;;
5704;SDS011;2877;48.238;11.160;2023-07-02T03:29:07;7.17;;;4.97;;
5704;SDS011;2877;48.238;11.160;2023-07-02T03:31:33;5.67;;;4.90;;
5704;SDS011;2877;48.238;11.160;2023-07-02T03:34:01;6.13;;;4.83;;
5704;SDS011;2877;48.238;11.160;2023-07-02T03:36:32;5.50;;;4.47;;
5704;SDS011;2877;48.238;11.160;2023-07-02T03:38:58;11.57;;;6.10;;
5704;SDS011;2877;48.238;11.160;2023-07-02T03:41:23;7.30;;;5.23;;
5704;SDS011;2877;48.238;11.160;2023-07-02T03:43:49;7.73;;;4.67;;
5704;SDS011;2877;48.238;11.160;2023-07-02T03:46:15;7.70;;;4.60;;
5704;SDS011;2877;48.238;11.160;2023-07-02T03:48:41;5.97;;;4.30;;
5704;SDS011;2877;48.238;11.160;2023-07-02T03:51:07;6.80;;;4.70;;
5704;SDS011;2877;48.238;11.160;2023-07-02T03:53:32;5.93;;;5.00;;
5704;SDS011;2877;48.238;11.160;2023-07-02T03:55:58;11.70;;;5.37;;
5704;SDS011;2877;48.238;11.160;2023-07-02T03:58:24;4.80;;;4.40;;
5704;SDS011;2877;48.238;11.160;2023-07-02T04:00:50;8.40;;;4.67;;
5704;SDS011;2877;48.238;11.160;2023-07-02T04:03:16;11.07;;;6.37;;
5704;SDS011;2877;48.238;11.160;2023-07-02T04:05:42;5.13;;;4.60;;
5704;SDS011;2877;48.238;11.160;2023-07-02T04:08:08;10.20;;;5.10;;
5704;SDS011;2877;48.238;11.160;2023-07-02T04:10:33;8.17;;;4.70;;
5704;SDS011;2877;48.238;11.160;2023-07-02T04:12:59;10.17;;;5.23;;
5704;SDS011;2877;48.238;11.160;2023-07-02T04:15:25;5.77;;;4.97;;
5704;SDS011;2877;48.238;11.160;2023-07-02T04:17:51;6.50;;;5.10;;
5704;SDS011;2877;48.238;11.160;2023-07-02T04:20:17;7.87;;;5.17;;
5704;SDS011;2877;48.238;11.160;2023-07-02T04:22:44;5.20;;;4.50;;
5704;SDS011;2877;48.238;11.160;2023-07-02T04:25:10;5.20;;;4.70;;
5704;SDS011;2877;48.238;11.160;2023-07-02T04:27:40;7.60;;;4.60;;
5704;SDS011;2877;48.238;11.160;2023-07-02T04:30:06;7.20;;;4.50;;
5704;SDS011;2877;48.238;11.160;2023-07-02T04:32:33;4.80;;;4.23;;
5704;SDS011;2877;48.238;11.160;2023-07-02T04:34:58;5.40;;;4.90;;
5704;SDS011;2877;48.238;11.160;2023-07-02T04:37:24;8.03;;;4.33;;
5704;SDS011;2877;48.238;11.160;2023-07-02T04:39:50;7.40;;;4.60;;
5704;SDS011;2877;48.238;11.160;2023-07-02T04:42:15;5.63;;;5.13;;
5704;SDS011;2877;48.238;11.160;2023-07-02T04:44:41;5.73;;;3.90;;
5704;SDS011;2877;48.238;11.160;2023-07-02T04:47:08;5.47;;;4.90;;
5704;SDS011;2877;48.238;11.160;2023-07-02T04:49:33;10.23;;;4.70;;
5704;SDS011;2877;48.238;11.160;2023-07-02T04:51:59;6.90;;;4.37;;
5704;SDS011;2877;48.238;11.160;2023-07-02T04:54:25;5.67;;;4.93;;
5704;SDS011;2877;48.238;11.160;2023-07-02T04:56:50;7.60;;;5.40;;
5704;SDS011;2877;48.238;11.160;2023-07-02T04:59:16;4.40;;;4.00;;
5704;SDS011;2877;48.238;11.160;2023-07-02T05:01:42;10.33;;;5.00;;
5704;SDS011;2877;48.238;11.160;2023-07-02T05:04:09;6.37;;;4.07;;
5704;SDS011;2877;48.238;11.160;2023-07-02T05:06:36;7.10;;;3.93;;
5704;SDS011;2877;48.238;11.160;2023-07-02T05:09:02;4.53;;;3.80;;
5704;SDS011;2877;48.238;11.160;2023-07-02T05:11:27;5.07;;;4.13;;
5704;SDS011;2877;48.238;11.160;2023-07-02T05:13:53;4.03;;;3.63;;
5704;SDS011;2877;48.238;11.160;2023-07-02T05:16:18;4.17;;;3.77;;
5704;SDS011;2877;48.238;11.160;2023-07-02T05:18:44;4.50;;;3.90;;
5704;SDS011;2877;48.238;11.160;2023-07-02T05:21:10;5.47;;;3.90;;
5704;SDS011;2877;48.238;11.160;2023-07-02T05:23:36;7.23;;;4.17;;
5704;SDS011;2877;48.238;11.160;2023-07-02T05:26:01;5.67;;;3.90;;
5704;SDS011;2877;48.238;11.160;2023-07-02T05:28:27;5.53;;;3.90;;
5704;SDS011;2877;48.238;11.160;2023-07-02T05:30:53;5.27;;;3.70;;
5704;SDS011;2877;48.238;11.160;2023-07-02T05:33:18;4.17;;;3.77;;
5704;SDS011;2877;48.238;11.160;2023-07-02T05:35:44;4.43;;;3.63;;
5704;SDS011;2877;48.238;11.160;2023-07-02T05:38:11;4.47;;;3.37;;
5704;SDS011;2877;48.238;11.160;2023-07-02T05:40:36;5.07;;;3.30;;
5704;SDS011;2877;48.238;11.160;2023-07-02T05:43:02;5.00;;;3.87;;
5704;SDS011;2877;48.238;11.160;2023-07-02T05:45:28;4.70;;;3.40;;
5704;SDS011;2877;48.238;11.160;2023-07-02T05:47:54;8.33;;;3.90;;
5704;SDS011;2877;48.238;11.160;2023-07-02T05:50:19;4.20;;;3.80;;
5704;SDS011;2877;48.238;11.160;2023-07-02T05:52:45;4.37;;;3.83;;
5704;SDS011;2877;48.238;11.160;2023-07-02T05:55:11;6.13;;;3.60;;
5704;SDS011;2877;48.238;11.160;2023-07-02T05:57:37;10.00;;;4.13;;
5704;SDS011;2877;48.238;11.160;2023-07-02T06:00:05;5.30;;;3.63;;
5704;SDS011;2877;48.238;11.160;2023-07-02T06:02:31;6.17;;;3.97;;
5704;SDS011;2877;48.238;11.160;2023-07-02T06:04:57;6.77;;;4.10;;
5704;SDS011;2877;48.238;11.160;2023-07-02T06:07:24;4.47;;;3.77;;
5704;SDS011;2877;48.238;11.160;2023-07-02T06:09:50;6.30;;;4.27;;
5704;SDS011;2877;48.238;11.160;2023-07-02T06:12:15;6.00;;;3.70;;
5704;SDS011;2877;48.238;11.160;2023-07-02T06:14:41;6.80;;;4.03;;
5704;SDS011;2877;48.238;11.160;2023-07-02T06:17:07;3.57;;;3.27;;
5704;SDS011;2877;48.238;11.160;2023-07-02T06:19:33;4.87;;;3.40;;
5704;SDS011;2877;48.238;11.160;2023-07-02T06:21:59;5.80;;;3.80;;
5704;SDS011;2877;48.238;11.160;2023-07-02T06:24:25;3.67;;;3.37;;
5704;SDS011;2877;48.238;11.160;2023-07-02T06:26:50;5.60;;;3.40;;
5704;SDS011;2877;48.238;11.160;2023-07-02T06:29:16;4.90;;;3.50;;
5704;SDS011;2877;48.238;11.160;2023-07-02T06:31:41;5.50;;;3.60;;
5704;SDS011;2877;48.238;11.160;2023-07-02T06:34:07;4.67;;;3.90;;
5704;SDS011;2877;48.238;11.160;2023-07-02T06:36:33;4.30;;;3.90;;
5704;SDS011;2877;48.238;11.160;2023-07-02T06:38:59;5.00;;;3.83;;
5704;SDS011;2877;48.238;11.160;2023-07-02T06:41:25;8.20;;;3.87;;
5704;SDS011;2877;48.238;11.160;2023-07-02T06:43:50;5.07;;;3.63;;
5704;SDS011;2877;48.238;11.160;2023-07-02T06:46:16;5.30;;;4.20;;
5704;SDS011;2877;48.238;11.160;2023-07-02T06:48:42;3.77;;;3.43;;
5704;SDS011;2877;48.238;11.160;2023-07-02T06:51:08;5.93;;;4.10;;
5704;SDS011;2877;48.238;11.160;2023-07-02T06:53:33;4.27;;;3.87;;
5704;SDS011;2877;48.238;11.160;2023-07-02T06:56:00;4.23;;;3.73;;
5704;SDS011;2877;48.238;11.160;2023-07-02T06:58:26;5.63;;;4.27;;
5704;SDS011;2877;48.238;11.160;2023-07-02T07:00:51;4.20;;;3.80;;
5704;SDS011;2877;48.238;11.160;2023-07-02T07:03:17;5.90;;;4.23;;
5704;SDS011;2877;48.238;11.160;2023-07-02T07:05:43;5.00;;;4.07;;
5704;SDS011;2877;48.238;11.160;2023-07-02T07:08:08;4.40;;;3.47;;
5704;SDS011;2877;48.238;11.160;2023-07-02T07:10:34;3.83;;;3.30;;
5704;SDS011;2877;48.238;11.160;2023-07-02T07:13:00;4.53;;;3.37;;
5704;SDS011;2877;48.238;11.160;2023-07-02T07:15:27;5.10;;;3.70;;
5704;SDS011;2877;48.238;11.160;2023-07-02T07:17:54;5.13;;;3.90;;
5704;SDS011;2877;48.238;11.160;2023-07-02T07:20:20;4.37;;;4.00;;
5704;SDS011;2877;48.238;11.160;2023-07-02T07:22:46;9.70;;;4.23;;
5704;SDS011;2877;48.238;11.160;2023-07-02T07:25:12;11.50;;;4.10;;
5704;SDS011;2877;48.238;11.160;2023-07-02T07:27:37;5.70;;;4.10;;
5704;SDS011;2877;48.238;11.160;2023-07-02T07:30:03;5.23;;;3.90;;
5704;SDS011;2877;48.238;11.160;2023-07-02T07:32:29;4.10;;;3.70;;
5704;SDS011;2877;48.238;11.160;2023-07-02T07:34:54;5.23;;;3.63;;
5704;SDS011;2877;48.238;11.160;2023-07-02T07:37:20;4.10;;;3.70;;
5704;SDS011;2877;48.238;11.160;2023-07-02T07:39:46;5.10;;;3.43;;
5704;SDS011;2877;48.238;11.160;2023-07-02T07:42:11;4.10;;;3.63;;
5704;SDS011;2877;48.238;11.160;2023-07-02T07:44:40;3.63;;;3.43;;
5704;SDS011;2877;48.238;11.160;2023-07-02T07:47:05;3.20;;;3.00;;
5704;SDS011;2877;48.238;11.160;2023-07-02T07:49:31;3.47;;;3.20;;
5704;SDS011;2877;48.238;11.160;2023-07-02T07:51:56;3.70;;;3.37;;
5704;SDS011;2877;48.238;11.160;2023-07-02T07:54:22;3.27;;;2.80;;
5704;SDS011;2877;48.238;11.160;2023-07-02T07:56:47;3.67;;;2.63;;
5704;SDS011;2877;48.238;11.160;2023-07-02T07:59:13;2.80;;;2.60;;
5704;SDS011;2877;48.238;11.160;2023-07-02T08:01:39;3.57;;;3.00;;
5704;SDS011;2877;48.238;11.160;2023-07-02T08:04:05;3.13;;;2.93;;
5704;SDS011;2877;48.238;11.160;2023-07-02T08:06:30;2.60;;;2.40;;
5704;SDS011;2877;48.238;11.160;2023-07-02T08:08:56;2.90;;;2.70;;
5704;SDS011;2877;48.238;11.160;2023-07-02T08:11:22;3.13;;;2.83;;
5704;SDS011;2877;48.238;11.160;2023-07-02T08:13:47;3.17;;;2.90;;
5704;SDS011;2877;48.238;11.160;2023-07-02T08:16:13;3.40;;;3.10;;
5704;SDS011;2877;48.238;11.160;2023-07-02T08:18:38;3.07;;;2.67;;
5704;SDS011;2877;48.238;11.160;2023-07-02T08:21:04;3.43;;;3.13;;
5704;SDS011;2877;48.238;11.160;2023-07-02T08:23:31;4.03;;;2.83;;
5704;SDS011;2877;48.238;11.160;2023-07-02T08:25:57;3.43;;;2.43;;
5704;SDS011;2877;48.238;11.160;2023-07-02T08:28:22;3.60;;;2.20;;
5704;SDS011;2877;48.238;11.160;2023-07-02T08:30:48;2.77;;;2.10;;
5704;SDS011;2877;48.238;11.160;2023-07-02T08:33:13;2.80;;;2.03;;
5704;SDS011;2877;48.238;11.160;2023-07-02T08:35:39;2.50;;;2.30;;
5704;SDS011;2877;48.238;11.160;2023-07-02T08:38:04;2.43;;;2.27;;
5704;SDS011;2877;48.238;11.160;2023-07-02T08:40:30;2.70;;;2.50;;
5704;SDS011;2877;48.238;11.160;2023-07-02T08:42:55;3.63;;;3.33;;
5704;SDS011;2877;48.238;11.160;2023-07-02T08:45:22;3.30;;;2.83;;
5704;SDS011;2877;48.238;11.160;2023-07-02T08:47:51;3.23;;;2.57;;
5704;SDS011;2877;48.238;11.160;2023-07-02T08:50:20;5.20;;;2.87;;
5704;SDS011;2877;48.238;11.160;2023-07-02T08:52:45;3.17;;;2.70;;
5704;SDS011;2877;48.238;11.160;2023-07-02T08:55:11;3.33;;;2.83;;
5704;SDS011;2877;48.238;11.160;2023-07-02T08:57:37;5.07;;;3.53;;
5704;SDS011;2877;48.238;11.160;2023-07-02T09:00:07;4.70;;;3.57;;
5704;SDS011;2877;48.238;11.160;2023-07-02T09:02:34;4.40;;;3.43;;
5704;SDS011;2877;48.238;11.160;2023-07-02T09:05:00;3.40;;;3.10;;
5704;SDS011;2877;48.238;11.160;2023-07-02T09:07:26;7.13;;;3.23;;
5704;SDS011;2877;48.238;11.160;2023-07-02T09:09:52;6.30;;;3.80;;
5704;SDS011;2877;48.238;11.160;2023-07-02T09:12:30;7.00;;;4.30;;
5704;SDS011;2877;48.238;11.160;2023-07-02T09:14:57;6.00;;;3.53;;
5704;SDS011;2877;48.238;11.160;2023-07-02T09:17:34;5.60;;;3.60;;
5704;SDS011;2877;48.238;11.160;2023-07-02T09:20:03;6.73;;;3.80;;
5704;SDS011;2877;48.238;11.160;2023-07-02T09:22:32;9.90;;;4.07;;
5704;SDS011;2877;48.238;11.160;2023-07-02T09:24:58;7.47;;;4.30;;
5704;SDS011;2877;48.238;11.160;2023-07-02T09:30:05;4.73;;;3.83;;
5704;SDS011;2877;48.238;11.160;2023-07-02T09:32:37;4.13;;;3.37;;
5704;SDS011;2877;48.238;11.160;2023-07-02T09:35:03;7.90;;;4.13;;
5704;SDS011;2877;48.238;11.160;2023-07-02T09:37:29;6.13;;;4.07;;
5704;SDS011;2877;48.238;11.160;2023-07-02T09:39:56;5.33;;;4.10;;
5704;SDS011;2877;48.238;11.160;2023-07-02T09:42:22;6.53;;;4.50;;
5704;SDS011;2877;48.238;11.160;2023-07-02T09:44:51;8.47;;;4.00;;
5704;SDS011;2877;48.238;11.160;2023-07-02T09:47:19;5.87;;;3.63;;
5704;SDS011;2877;48.238;11.160;2023-07-02T09:49:52;9.53;;;3.70;;
5704;SDS011;2877;48.238;11.160;2023-07-02T09:52:27;3.90;;;3.50;;
5704;SDS011;2877;48.238;11.160;2023-07-02T09:54:53;7.27;;;3.17;;
5704;SDS011;2877;48.238;11.160;2023-07-02T09:57:18;4.87;;;3.60;;
5704;SDS011;2877;48.238;11.160;2023-07-02T09:59:44;4.30;;;3.50;;
5704;SDS011;2877;48.238;11.160;2023-07-02T10:02:10;4.53;;;3.20;;
5704;SDS011;2877;48.238;11.160;2023-07-02T10:04:46;10.10;;;3.93;;
5704;SDS011;2877;48.238;11.160;2023-07-02T10:07:13;3.63;;;3.00;;
5704;SDS011;2877;48.238;11.160;2023-07-02T10:09:51;5.10;;;3.80;;
5704;SDS011;2877;48.238;11.160;2023-07-02T10:12:30;4.70;;;3.33;;
5704;SDS011;2877;48.238;11.160;2023-07-02T10:14:57;5.53;;;3.33;;
5704;SDS011;2877;48.238;11.160;2023-07-02T10:19:50;5.03;;;3.80;;
5704;SDS011;2877;48.238;11.160;2023-07-02T10:22:19;6.20;;;3.40;;
5704;SDS011;2877;48.238;11.160;2023-07-02T10:24:52;4.40;;;3.13;;
5704;SDS011;2877;48.238;11.160;2023-07-02T10:27:18;11.13;;;3.70;;
5704;SDS011;2877;48.238;11.160;2023-07-02T10:29:49;4.60;;;3.70;;
5704;SDS011;2877;48.238;11.160;2023-07-02T10:32:25;5.83;;;3.53;;
5704;SDS011;2877;48.238;11.160;2023-07-02T10:34:52;7.10;;;4.40;;
5704;SDS011;2877;48.238;11.160;2023-07-02T10:37:17;6.50;;;3.90;;
5704;SDS011;2877;48.238;11.160;2023-07-02T10:39:43;4.17;;;3.77;;
5704;SDS011;2877;48.238;11.160;2023-07-02T10:42:09;5.57;;;4.13;;
5704;SDS011;2877;48.238;11.160;2023-07-02T10:44:46;4.40;;;4.00;;
5704;SDS011;2877;48.238;11.160;2023-07-02T10:47:16;6.97;;;3.83;;
5704;SDS011;2877;48.238;11.160;2023-07-02T10:49:41;8.80;;;4.13;;
5704;SDS011;2877;48.238;11.160;2023-07-02T10:52:07;7.00;;;4.40;;
5704;SDS011;2877;48.238;11.160;2023-07-02T10:54:42;7.23;;;4.83;;
5704;SDS011;2877;48.238;11.160;2023-07-02T10:57:10;7.67;;;4.80;;
5704;SDS011;2877;48.238;11.160;2023-07-02T10:59:38;7.17;;;5.30;;
5704;SDS011;2877;48.238;11.160;2023-07-02T11:02:03;8.00;;;6.03;;
5704;SDS011;2877;48.238;11.160;2023-07-02T11:04:32;8.80;;;6.20;;
5704;SDS011;2877;48.238;11.160;2023-07-02T11:06:59;12.03;;;7.00;;
5704;SDS011;2877;48.238;11.160;2023-07-02T11:09:25;9.53;;;6.07;;
5704;SDS011;2877;48.238;11.160;2023-07-02T11:11:52;10.30;;;6.30;;
5704;SDS011;2877;48.238;11.160;2023-07-02T11:14:32;12.47;;;6.57;;
5704;SDS011;2877;48.238;11.160;2023-07-02T11:17:03;9.23;;;6.40;;
5704;SDS011;2877;48.238;11.160;2023-07-02T11:19:31;8.20;;;6.40;;
5704;SDS011;2877;48.238;11.160;2023-07-02T11:22:00;11.97;;;7.00;;
5704;SDS011;2877;48.238;11.160;2023-07-02T11:24:34;8.90;;;6.70;;
5704;SDS011;2877;48.238;11.160;2023-07-02T11:27:01;9.67;;;7.30;;
5704;SDS011;2877;48.238;11.160;2023-07-02T11:29:28;13.20;;;7.63;;
5704;SDS011;2877;48.238;11.160;2023-07-02T11:32:03;11.17;;;7.17;;
5704;SDS011;2877;48.238;11.160;2023-07-02T11:34:30;14.10;;;7.53;;
5704;SDS011;2877;48.238;11.160;2023-07-02T11:36:55;15.40;;;8.70;;
5704;SDS011;2877;48.238;11.160;2023-07-02T11:39:21;16.13;;;7.83;;
5704;SDS011;2877;48.238;11.160;2023-07-02T11:41:47;19.97;;;9.13;;
5704;SDS011;2877;48.238;11.160;2023-07-02T11:44:13;16.93;;;9.63;;
5704;SDS011;2877;48.238;11.160;2023-07-02T11:46:40;15.50;;;9.57;;
5704;SDS011;2877;48.238;11.160;2023-07-02T11:49:05;14.90;;;9.53;;
5704;SDS011;2877;48.238;11.160;2023-07-02T11:51:34;12.97;;;9.43;;
5704;SDS011;2877;48.238;11.160;2023-07-02T11:54:03;19.27;;;10.50;;
5704;SDS011;2877;48.238;11.160;2023-07-02T11:56:29;14.10;;;9.90;;
5704;SDS011;2877;48.238;11.160;2023-07-02T11:58:55;17.07;;;10.00;;
5704;SDS011;2877;48.238;11.160;2023-07-02T12:01:21;16.20;;;10.50;;
5704;SDS011;2877;48.238;11.160;2023-07-02T12:03:47;14.83;;;9.80;;
5704;SDS011;2877;48.238;11.160;2023-07-02T12:06:12;18.17;;;9.40;;
5704;SDS011;2877;48.238;11.160;2023-07-02T12:08:38;15.77;;;10.70;;
5704;SDS011;2877;48.238;11.160;2023-07-02T12:11:03;14.93;;;10.53;;
5704;SDS011;2877;48.238;11.160;2023-07-02T12:13:29;15.27;;;10.73;;
5704;SDS011;2877;48.238;11.160;2023-07-02T12:15:55;15.30;;;10.90;;
5704;SDS011;2877;48.238;11.160;2023-07-02T12:18:20;16.10;;;11.10;;
5704;SDS011;2877;48.238;11.160;2023-07-02T12:20:46;15.60;;;10.70;;
5704;SDS011;2877;48.238;11.160;2023-07-02T12:23:11;19.00;;;11.13;;
5704;SDS011;2877;48.238;11.160;2023-07-02T12:25:37;15.33;;;10.70;;
5704;SDS011;2877;48.238;11.160;2023-07-02T12:28:03;15.70;;;11.40;;
5704;SDS011;2877;48.238;11.160;2023-07-02T12:30:30;16.27;;;11.40;;
5704;SDS011;2877;48.238;11.160;2023-07-02T12:32:55;15.97;;;10.47;;
5704;SDS011;2877;48.238;11.160;2023-07-02T12:35:21;17.50;;;11.27;;
5704;SDS011;2877;48.238;11.160;2023-07-02T12:37:48;19.50;;;11.73;;
5704;SDS011;2877;48.238;11.160;2023-07-02T12:40:15;17.40;;;11.90;;
5704;SDS011;2877;48.238;11.160;2023-07-02T12:42:41;19.57;;;12.37;;
5704;SDS011;2877;48.238;11.160;2023-07-02T12:45:08;21.40;;;11.50;;
5704;SDS011;2877;48.238;11.160;2023-07-02T12:47:34;16.67;;;11.87;;
5704;SDS011;2877;48.238;11.160;2023-07-02T12:49:59;21.40;;;12.47;;
5704;SDS011;2877;48.238;11.160;2023-07-02T12:52:25;17.40;;;11.90;;
5704;SDS011;2877;48.238;11.160;2023-07-02T12:54:51;18.50;;;12.60;;
5704;SDS011;2877;48.238;11.160;2023-07-02T12:57:17;24.20;;;13.07;;
5704;SDS011;2877;48.238;11.160;2023-07-02T12:59:42;15.30;;;12.03;;
5704;SDS011;2877;48.238;11.160;2023-07-02T13:02:09;25.37;;;14.00;;
5704;SDS011;2877;48.238;11.160;2023-07-02T13:04:34;20.17;;;12.67;;
5704;SDS011;2877;48.238;11.160;2023-07-02T13:07:00;18.10;;;13.03;;
5704;SDS011;2877;48.238;11.160;2023-07-02T13:09:25;18.13;;;12.60;;
5704;SDS011;2877;48.238;11.160;2023-07-02T13:11:51;21.00;;;12.77;;
5704;SDS011;2877;48.238;11.160;2023-07-02T13:14:17;24.97;;;13.90;;
5704;SDS011;2877;48.238;11.160;2023-07-02T13:16:42;18.93;;;13.07;;
5704;SDS011;2877;48.238;11.160;2023-07-02T13:19:08;18.87;;;12.57;;
5704;SDS011;2877;48.238;11.160;2023-07-02T13:21:33;19.17;;;12.03;;
5704;SDS011;2877;48.238;11.160;2023-07-02T13:23:59;20.80;;;13.63;;
5704;SDS011;2877;48.238;11.160;2023-07-02T13:26:24;22.17;;;14.00;;
5704;SDS011;2877;48.238;11.160;2023-07-02T13:28:50;18.33;;;13.10;;
5704;SDS011;2877;48.238;11.160;2023-07-02T13:31:15;17.20;;;13.00;;
5704;SDS011;2877;48.238;11.160;2023-07-02T13:33:41;20.30;;;12.97;;
5704;SDS011;2877;48.238;11.160;2023-07-02T13:36:07;21.03;;;13.60;;
5704;SDS011;2877;48.238;11.160;2023-07-02T13:38:33;18.80;;;11.97;;
5704;SDS011;2877;48.238;11.160;2023-07-02T13:40:59;25.00;;;14.40;;
5704;SDS011;2877;48.238;11.160;2023-07-02T13:43:24;23.63;;;14.30;;
5704;SDS011;2877;48.238;11.160;2023-07-02T13:45:50;19.33;;;13.50;;
5704;SDS011;2877;48.238;11.160;2023-07-02T13:48:15;23.00;;;14.10;;
5704;SDS011;2877;48.238;11.160;2023-07-02T13:50:41;22.03;;;13.77;;
5704;SDS011;2877;48.238;11.160;2023-07-02T13:53:07;22.03;;;14.30;;
5704;SDS011;2877;48.238;11.160;2023-07-02T13:55:33;22.30;;;14.63;;
5704;SDS011;2877;48.238;11.160;2023-07-02T13:57:59;21.23;;;14.20;;
5704;SDS011;2877;48.238;11.160;2023-07-02T14:00:25;20.63;;;13.93;;
5704;SDS011;2877;48.238;11.160;2023-07-02T14:02:52;21.57;;;13.63;;
5704;SDS011;2877;48.238;11.160;2023-07-02T14:05:17;22.03;;;14.00;;
5704;SDS011;2877;48.238;11.160;2023-07-02T14:07:43;21.60;;;14.17;;
5704;SDS011;2877;48.238;11.160;2023-07-02T14:10:09;19.13;;;14.07;;
5704;SDS011;2877;48.238;11.160;2023-07-02T14:12:37;20.80;;;14.63;;
5704;SDS011;2877;48.238;11.160;2023-07-02T14:15:03;22.80;;;15.20;;
5704;SDS011;2877;48.238;11.160;2023-07-02T14:17:29;18.67;;;13.77;;
5704;SDS011;2877;48.238;11.160;2023-07-02T14:19:54;21.83;;;15.30;;
5704;SDS011;2877;48.238;11.160;2023-07-02T14:22:20;27.60;;;15.93;;
5704;SDS011;2877;48.238;11.160;2023-07-02T14:24:45;23.43;;;15.17;;
5704;SDS011;2877;48.238;11.160;2023-07-02T14:27:11;20.07;;;14.73;;
5704;SDS011;2877;48.238;11.160;2023-07-02T14:29:36;22.33;;;15.10;;
5704;SDS011;2877;48.238;11.160;2023-07-02T14:32:02;24.00;;;14.87;;
5704;SDS011;2877;48.238;11.160;2023-07-02T14:34:28;23.93;;;14.70;;
5704;SDS011;2877;48.238;11.160;2023-07-02T14:36:55;20.80;;;14.10;;
5704;SDS011;2877;48.238;11.160;2023-07-02T14:39:21;23.87;;;14.50;;
5704;SDS011;2877;48.238;11.160;2023-07-02T14:41:47;20.13;;;14.23;;
5704;SDS011;2877;48.238;11.160;2023-07-02T14:44:13;19.23;;;13.80;;
5704;SDS011;2877;48.238;11.160;2023-07-02T14:46:39;21.93;;;15.00;;
5704;SDS011;2877;48.238;11.160;2023-07-02T14:49:04;21.27;;;14.40;;
5704;SDS011;2877;48.238;11.160;2023-07-02T14:51:30;20.57;;;14.23;;
5704;SDS011;2877;48.238;11.160;2023-07-02T14:53:55;18.17;;;13.43;;
5704;SDS011;2877;48.238;11.160;2023-07-02T14:56:21;18.97;;;13.97;;
5704;SDS011;2877;48.238;11.160;2023-07-02T14:58:47;24.07;;;15.17;;
5704;SDS011;2877;48.238;11.160;2023-07-02T15:01:13;20.17;;;13.33;;